createdAt,value
2023-03-07T00:01:27.161Z,80.50
2023-03-07T00:03:54.278Z,80.55
2023-03-07T00:06:21.504Z,80.28
2023-03-07T00:08:53.085Z,80.30
2023-03-07T00:11:19.911Z,80.46
2023-03-07T00:13:46.716Z,80.40
2023-03-07T00:16:16.417Z,80.11
2023-03-07T00:18:43.995Z,80.14
2023-03-07T00:21:13.441Z,80.13
2023-03-07T00:23:42.643Z,80.22
2023-03-07T00:26:20.934Z,79.76
2023-03-07T00:28:50.043Z,79.94
2023-03-07T00:31:17.676Z,79.91
2023-03-07T00:33:44.730Z,79.84
2023-03-07T00:36:16.657Z,79.73
2023-03-07T00:38:45.007Z,79.80
2023-03-07T00:41:14.430Z,79.81
2023-03-07T00:43:41.833Z,79.95
2023-03-07T00:46:09.009Z,79.70
2023-03-07T00:48:37.796Z,79.74
2023-03-07T00:51:06.205Z,79.94
2023-03-07T00:53:33.279Z,80.09
2023-03-07T00:56:01.485Z,80.15
2023-03-07T00:58:32.932Z,80.13
2023-03-07T01:01:00.407Z,80.00
2023-03-07T01:03:27.774Z,80.24
2023-03-07T01:05:55.164Z,80.42
2023-03-07T01:08:22.971Z,80.37
2023-03-07T01:10:49.916Z,80.29
2023-03-07T01:13:18.871Z,80.64
2023-03-07T01:15:46.318Z,80.32
2023-03-07T01:18:13.219Z,80.51
2023-03-07T01:20:41.018Z,80.68
2023-03-07T01:23:08.082Z,80.50
2023-03-07T01:25:40.096Z,80.59
2023-03-07T01:28:08.108Z,80.93
2023-03-07T01:30:34.893Z,80.83
2023-03-07T01:33:03.957Z,80.74
2023-03-07T01:35:36.049Z,80.74
2023-03-07T01:38:02.872Z,80.87
2023-03-07T01:40:30.590Z,81.16
2023-03-07T01:43:22.605Z,81.00
2023-03-07T01:45:51.575Z,81.10
2023-03-07T01:48:19.366Z,81.16
2023-03-07T01:50:48.476Z,81.04
2023-03-07T01:53:15.913Z,81.42
2023-03-07T01:55:43.152Z,81.25
2023-03-07T01:58:15.018Z,81.22
2023-03-07T02:00:44.235Z,81.43
2023-03-07T02:03:10.898Z,81.28
2023-03-07T02:06:04.602Z,81.54
2023-03-07T02:08:33.028Z,81.40
2023-03-07T02:10:59.763Z,81.58
2023-03-07T02:13:29.022Z,81.58
2023-03-07T02:15:56.905Z,81.75
2023-03-07T02:18:28.191Z,81.64
2023-03-07T02:21:03.916Z,81.85
2023-03-07T02:23:40.648Z,81.95
2023-03-07T02:26:12.686Z,81.77
2023-03-07T02:28:42.496Z,81.81
2023-03-07T02:31:10.604Z,81.83
2023-03-07T02:33:38.766Z,81.87
2023-03-07T02:36:11.468Z,81.89
2023-03-07T02:38:45.365Z,82.36
2023-03-07T02:41:12.916Z,82.34
2023-03-07T02:43:39.879Z,82.12
2023-03-07T02:46:07.539Z,82.39
2023-03-07T02:48:34.291Z,82.30
2023-03-07T02:51:01.160Z,82.44
2023-03-07T02:53:28.473Z,82.54
2023-03-07T02:55:55.235Z,82.63
2023-03-07T02:58:22.217Z,82.72
2023-03-07T03:00:49.200Z,82.71
2023-03-07T03:03:15.965Z,82.74
2023-03-07T03:05:42.621Z,83.14
2023-03-07T03:08:09.783Z,83.00
2023-03-07T03:10:36.642Z,83.03
2023-03-07T03:13:03.402Z,83.01
2023-03-07T03:15:30.143Z,82.96
2023-03-07T03:17:57.066Z,83.32
2023-03-07T03:20:25.496Z,83.15
2023-03-07T03:22:53.085Z,83.27
2023-03-07T03:25:23.266Z,83.38
2023-03-07T03:27:50.995Z,83.34
2023-03-07T03:30:17.862Z,83.61
2023-03-07T03:32:45.036Z,83.53
2023-03-07T03:35:14.914Z,83.55
2023-03-07T03:37:42.274Z,83.32
2023-03-07T03:40:14.640Z,83.35
2023-03-07T03:42:43.681Z,83.31
2023-03-07T03:45:11.796Z,83.47
2023-03-07T03:47:38.575Z,83.50
2023-03-07T03:50:06.335Z,83.51
2023-03-07T03:52:35.773Z,83.66
2023-03-07T03:55:02.701Z,83.34
2023-03-07T03:57:29.437Z,83.34
2023-03-07T03:59:56.114Z,83.47
2023-03-07T04:02:23.542Z,83.69
2023-03-07T04:04:50.966Z,83.51
2023-03-07T04:07:17.633Z,83.40
2023-03-07T04:09:45.598Z,83.59
2023-03-07T04:12:12.397Z,83.69
2023-03-07T04:14:40.196Z,83.45
2023-03-07T04:17:07.349Z,83.34
2023-03-07T04:19:34.115Z,83.71
2023-03-07T04:22:01.393Z,83.54
2023-03-07T04:24:28.093Z,83.28
2023-03-07T04:26:54.822Z,83.16
2023-03-07T04:29:21.581Z,83.14
2023-03-07T04:31:55.017Z,83.07
2023-03-07T04:34:22.054Z,83.16
2023-03-07T04:36:48.962Z,83.31
2023-03-07T04:39:15.822Z,83.07
2023-03-07T04:41:43.002Z,83.04
2023-03-07T04:44:17.250Z,83.23
2023-03-07T04:46:44.139Z,83.00
2023-03-07T04:49:11.302Z,82.84
2023-03-07T04:51:39.399Z,83.35
2023-03-07T04:54:06.506Z,83.08
2023-03-07T04:56:33.605Z,83.37
2023-03-07T04:59:01.287Z,83.29
2023-03-07T05:01:28.166Z,83.35
2023-03-07T05:03:55.084Z,83.58
2023-03-07T05:06:22.185Z,83.56
2023-03-07T05:08:52.646Z,83.79
2023-03-07T05:11:19.586Z,83.85
2023-03-07T05:13:46.786Z,84.01
2023-03-07T05:16:17.874Z,84.15
2023-03-07T05:18:44.879Z,84.13
2023-03-07T05:21:12.169Z,84.27
2023-03-07T05:23:39.733Z,84.47
2023-03-07T05:26:07.941Z,84.62
2023-03-07T05:28:34.689Z,84.41
2023-03-07T05:31:02.210Z,84.71
2023-03-07T05:33:29.148Z,84.76
2023-03-07T05:36:00.051Z,84.94
2023-03-07T05:38:27.087Z,84.98
2023-03-07T05:40:53.832Z,85.17
2023-03-07T05:43:20.493Z,84.99
2023-03-07T05:45:47.175Z,85.28
2023-03-07T05:48:14.495Z,85.25
2023-03-07T05:50:42.743Z,85.43
2023-03-07T05:53:09.925Z,85.62
2023-03-07T05:55:36.652Z,85.72
2023-03-07T05:58:03.715Z,85.63
2023-03-07T06:00:30.550Z,85.62
2023-03-07T06:03:04.005Z,86.00
2023-03-07T06:05:31.772Z,85.79
2023-03-07T06:07:58.596Z,85.78
2023-03-07T06:10:25.940Z,86.06
2023-03-07T06:12:56.072Z,85.96
2023-03-07T06:15:24.564Z,86.06
2023-03-07T06:17:56.846Z,86.32
2023-03-07T06:20:24.385Z,86.16
2023-03-07T06:22:53.743Z,86.23
2023-03-07T06:25:21.903Z,86.51
2023-03-07T06:27:49.341Z,86.37
2023-03-07T06:30:16.147Z,86.47
2023-03-07T06:32:43.021Z,86.67
2023-03-07T06:35:10.328Z,86.53
2023-03-07T06:37:37.261Z,86.53
2023-03-07T06:40:06.470Z,86.63
2023-03-07T06:42:35.630Z,86.67
2023-03-07T06:45:02.939Z,86.68
2023-03-07T06:47:29.646Z,86.77
2023-03-07T06:49:57.012Z,86.79
2023-03-07T06:52:24.136Z,86.74
2023-03-07T06:54:51.120Z,86.90
2023-03-07T06:57:17.819Z,86.74
2023-03-07T06:59:45.009Z,86.91
2023-03-07T07:02:13.812Z,86.78
2023-03-07T07:04:40.765Z,86.95
2023-03-07T07:07:07.556Z,86.70
2023-03-07T07:09:37.203Z,86.79
2023-03-07T07:12:06.050Z,86.94
2023-03-07T07:14:34.795Z,86.64
2023-03-07T07:17:02.837Z,86.66
2023-03-07T07:19:29.584Z,86.49
2023-03-07T07:22:00.961Z,86.71
2023-03-07T07:24:27.704Z,86.59
2023-03-07T07:26:55.947Z,86.59
2023-03-07T07:29:23.757Z,86.46
2023-03-07T07:31:51.587Z,86.53
2023-03-07T07:34:19.634Z,86.57
2023-03-07T07:36:47.137Z,86.35
2023-03-07T07:39:15.395Z,86.29
2023-03-07T07:41:44.684Z,86.29
2023-03-07T07:44:12.049Z,86.16
2023-03-07T07:46:51.136Z,86.26
2023-03-07T07:49:18.758Z,85.96
2023-03-07T07:51:46.110Z,86.29
2023-03-07T07:54:12.885Z,85.94
2023-03-07T07:56:40.562Z,86.01
2023-03-07T07:59:07.363Z,85.75
2023-03-07T08:01:34.271Z,85.95
2023-03-07T08:04:01.028Z,85.92
2023-03-07T08:06:28.237Z,85.87
2023-03-07T08:08:55.590Z,85.81
2023-03-07T08:11:23.297Z,85.72
2023-03-07T08:13:50.216Z,85.68
2023-03-07T08:16:18.996Z,85.62
2023-03-07T08:18:51.300Z,85.62
2023-03-07T08:21:18.339Z,85.47
2023-03-07T08:23:45.298Z,85.48
2023-03-07T08:26:13.493Z,85.21
2023-03-07T08:28:41.687Z,85.37
2023-03-07T08:31:15.912Z,85.45
2023-03-07T08:33:43.173Z,85.06
2023-03-07T08:36:10.241Z,85.30
2023-03-07T08:38:37.035Z,85.18
2023-03-07T08:41:05.811Z,85.10
2023-03-07T08:43:34.053Z,85.19
2023-03-07T08:46:00.913Z,85.08
2023-03-07T08:48:27.745Z,85.04
2023-03-07T08:50:55.367Z,84.78
2023-03-07T08:53:22.901Z,84.80
2023-03-07T08:55:50.072Z,84.73
2023-03-07T08:58:16.797Z,84.87
2023-03-07T09:00:43.574Z,85.07
2023-03-07T09:03:10.368Z,84.80
2023-03-07T09:05:38.963Z,85.04
2023-03-07T09:08:09.289Z,84.92
2023-03-07T09:10:37.049Z,85.00
2023-03-07T09:13:03.810Z,84.83
2023-03-07T09:15:30.743Z,84.93
2023-03-07T09:17:57.478Z,85.16
2023-03-07T09:20:24.948Z,84.77
2023-03-07T09:22:53.718Z,85.05
2023-03-07T09:25:20.467Z,84.90
2023-03-07T09:27:47.374Z,84.79
2023-03-07T09:30:14.928Z,84.65
2023-03-07T09:32:42.198Z,84.43
2023-03-07T09:35:10.429Z,84.70
2023-03-07T09:37:38.139Z,84.47
2023-03-07T09:40:09.554Z,84.61
2023-03-07T09:42:45.903Z,84.24
2023-03-07T09:45:21.249Z,84.32
2023-03-07T09:48:07.999Z,84.38
2023-03-07T09:50:45.551Z,84.31
2023-03-07T09:53:45.070Z,84.12
2023-03-07T09:56:25.317Z,83.94
2023-03-07T09:59:21.920Z,83.50
2023-03-07T10:02:06.129Z,83.27
2023-03-07T10:04:43.756Z,83.02
2023-03-07T10:07:12.960Z,83.08
2023-03-07T10:09:39.759Z,82.74
2023-03-07T10:12:25.662Z,82.48
2023-03-07T10:18:42.729Z,81.53
2023-03-07T10:21:18.168Z,81.40
2023-03-07T10:24:06.769Z,81.15
2023-03-07T10:26:35.913Z,80.78
2023-03-07T10:29:14.183Z,80.60
2023-03-07T10:31:43.173Z,79.91
2023-03-07T10:34:26.408Z,79.63
2023-03-07T10:37:08.402Z,79.32
2023-03-07T10:39:53.714Z,79.04
2023-03-07T10:42:22.976Z,78.70
2023-03-07T10:44:51.223Z,78.66
2023-03-07T10:47:21.167Z,78.47
2023-03-07T10:49:49.328Z,78.25
2023-03-07T10:52:33.071Z,77.91
2023-03-07T10:55:44.648Z,77.85
2023-03-07T10:58:16.103Z,77.63
2023-03-07T11:00:44.604Z,77.51
2023-03-07T11:03:52.841Z,77.48
2023-03-07T11:06:28.544Z,77.28
2023-03-07T11:08:56.293Z,76.84
2023-03-07T11:11:32.205Z,76.79
2023-03-07T11:14:10.630Z,76.25
2023-03-07T11:16:43.558Z,76.14
2023-03-07T11:19:33.437Z,75.81
2023-03-07T11:22:03.729Z,75.39
2023-03-07T11:24:38.385Z,75.45
2023-03-07T11:27:05.757Z,74.91
2023-03-07T11:29:33.841Z,74.52
2023-03-07T11:32:06.546Z,74.23
2023-03-07T11:34:53.999Z,74.14
2023-03-07T11:37:43.670Z,74.05
2023-03-07T11:40:34.085Z,73.76
2023-03-07T11:43:21.583Z,73.85
2023-03-07T11:45:51.287Z,73.83
2023-03-07T11:48:33.915Z,74.08
2023-03-07T11:51:03.081Z,73.98
2023-03-07T11:53:30.310Z,74.19
2023-03-07T11:56:31.042Z,74.73
2023-03-07T11:59:09.932Z,74.90
2023-03-07T12:01:47.697Z,75.15
2023-03-07T12:04:36.520Z,75.58
2023-03-07T12:07:44.987Z,75.52
2023-03-07T12:10:38.961Z,75.88
2023-03-07T12:13:24.375Z,76.23
2023-03-07T12:16:03.127Z,76.58
2023-03-07T12:18:58.181Z,76.69
2023-03-07T12:21:34.598Z,76.61
2023-03-07T12:24:11.356Z,76.82
2023-03-07T12:26:50.736Z,77.09
2023-03-07T12:29:35.749Z,77.11
2023-03-07T12:32:35.419Z,77.17
2023-03-07T12:35:08.567Z,77.15
2023-03-07T12:37:41.821Z,77.48
2023-03-07T12:40:42.490Z,77.65
2023-03-07T12:43:34.211Z,77.99
2023-03-07T12:46:23.690Z,78.10
2023-03-07T12:49:02.055Z,78.27
2023-03-07T12:51:37.457Z,78.63
2023-03-07T12:54:10.653Z,78.64
2023-03-07T12:57:19.429Z,78.61
2023-03-07T12:59:46.344Z,79.18
2023-03-07T13:02:24.769Z,79.31
2023-03-07T13:04:51.532Z,79.63
2023-03-07T13:07:20.355Z,79.72
2023-03-07T13:09:48.730Z,79.88
2023-03-07T13:12:25.508Z,80.04
2023-03-07T13:14:53.526Z,80.30
2023-03-07T13:17:33.364Z,80.69
2023-03-07T13:20:11.459Z,80.70
2023-03-07T13:22:38.160Z,80.79
2023-03-07T13:25:20.489Z,81.21
2023-03-07T13:27:55.802Z,81.55
2023-03-07T13:30:32.617Z,81.86
2023-03-07T13:33:00.395Z,81.76
2023-03-07T13:35:39.376Z,81.82
2023-03-07T13:38:15.586Z,82.03
2023-03-07T13:40:46.755Z,82.23
2023-03-07T13:43:19.377Z,82.36
2023-03-07T13:45:46.771Z,82.15
2023-03-07T13:48:19.623Z,82.03
2023-03-07T13:50:46.306Z,81.92
2023-03-07T13:53:20.134Z,82.00
2023-03-07T13:56:16.202Z,81.97
2023-03-07T13:58:52.428Z,82.06
2023-03-07T14:01:25.455Z,81.91
2023-03-07T14:03:58.765Z,81.92
2023-03-07T14:06:36.663Z,81.80
2023-03-07T14:09:05.694Z,81.93
2023-03-07T14:11:44.610Z,81.91
2023-03-07T14:14:19.147Z,81.78
2023-03-07T14:16:51.530Z,81.76
2023-03-07T14:19:55.541Z,81.61
2023-03-07T14:22:32.283Z,81.90
2023-03-07T14:25:21.336Z,81.67
2023-03-07T14:27:56.875Z,81.62
2023-03-07T14:30:26.097Z,81.37
2023-03-07T14:32:52.877Z,81.67
2023-03-07T14:35:43.110Z,81.12
2023-03-07T14:38:20.954Z,81.39
2023-03-07T14:41:16.720Z,81.16
2023-03-07T14:43:55.866Z,81.20
2023-03-07T14:46:35.706Z,80.97
2023-03-07T14:49:33.823Z,80.94
2023-03-07T14:52:02.585Z,81.16
2023-03-07T14:54:32.253Z,81.16
2023-03-07T14:57:00.747Z,80.96
2023-03-07T14:59:29.435Z,81.20
2023-03-07T15:01:57.783Z,81.09
2023-03-07T15:04:30.119Z,80.76
2023-03-07T15:07:02.172Z,80.86
2023-03-07T15:09:29.697Z,80.83
2023-03-07T15:12:29.204Z,80.71
2023-03-07T15:14:58.754Z,80.64
2023-03-07T15:17:32.874Z,80.87
2023-03-07T15:20:17.224Z,80.70
2023-03-07T15:22:46.841Z,80.70
2023-03-07T15:25:23.971Z,80.85
2023-03-07T15:28:04.484Z,80.78
2023-03-07T15:30:34.183Z,80.79
2023-03-07T15:33:23.245Z,81.03
2023-03-07T15:36:16.283Z,80.73
2023-03-07T15:38:48.501Z,80.66
2023-03-07T15:41:25.400Z,80.78
2023-03-07T15:44:10.610Z,80.65
2023-03-07T15:46:43.497Z,80.47
2023-03-07T15:49:23.068Z,80.59
2023-03-07T15:51:53.092Z,80.63
2023-03-07T15:54:27.202Z,80.53
2023-03-07T15:56:56.883Z,80.74
2023-03-07T15:59:38.748Z,80.62
2023-03-07T16:02:30.601Z,80.90
2023-03-07T16:04:59.944Z,80.68
2023-03-07T16:07:26.771Z,80.86
2023-03-07T16:09:53.530Z,80.71
2023-03-07T16:12:22.758Z,80.96
2023-03-07T16:14:51.150Z,80.71
2023-03-07T16:17:20.463Z,80.68
2023-03-07T16:19:47.322Z,80.73
2023-03-07T16:22:18.505Z,80.70
2023-03-07T16:24:45.415Z,80.70
2023-03-07T16:27:20.221Z,80.41
2023-03-07T16:29:47.496Z,80.47
2023-03-07T16:32:16.792Z,80.48
2023-03-07T16:34:44.517Z,80.61
2023-03-07T16:37:11.515Z,80.44
2023-03-07T16:39:38.221Z,80.50
2023-03-07T16:42:06.827Z,80.80
2023-03-07T16:44:38.183Z,80.71
2023-03-07T16:47:23.132Z,80.44
2023-03-07T16:49:51.073Z,80.87
2023-03-07T16:52:17.763Z,80.52
2023-03-07T16:54:44.583Z,80.55
2023-03-07T16:57:16.260Z,80.93
2023-03-07T16:59:47.193Z,80.71
2023-03-07T17:02:16.934Z,80.84
2023-03-07T17:04:44.728Z,81.07
2023-03-07T17:07:16.852Z,80.98
2023-03-07T17:09:43.638Z,81.08
2023-03-07T17:12:10.728Z,81.13
2023-03-07T17:14:37.535Z,81.11
2023-03-07T17:17:04.656Z,81.02
2023-03-07T17:19:32.919Z,81.04
2023-03-07T17:22:01.287Z,81.02
2023-03-07T17:24:29.388Z,80.96
2023-03-07T17:26:57.955Z,81.06
2023-03-07T17:29:40.164Z,80.90
2023-03-07T17:32:07.263Z,80.78
2023-03-07T17:34:35.021Z,80.53
2023-03-07T17:37:02.024Z,80.43
2023-03-07T17:39:30.362Z,80.13
2023-03-07T17:41:58.226Z,80.04
2023-03-07T17:44:25.301Z,80.31
2023-03-07T17:46:52.578Z,79.95
2023-03-07T17:49:20.334Z,80.17
2023-03-07T17:51:48.839Z,80.24
2023-03-07T17:54:16.296Z,79.78
2023-03-07T17:56:43.193Z,79.91
2023-03-07T17:59:10.312Z,79.92
2023-03-07T18:01:37.633Z,79.78
2023-03-07T18:04:06.507Z,79.76
2023-03-07T18:06:34.204Z,79.86
2023-03-07T18:09:01.609Z,79.82
2023-03-07T18:11:31.020Z,79.48
2023-03-07T18:13:58.071Z,79.60
2023-03-07T18:16:25.466Z,79.60
2023-03-07T18:18:59.336Z,79.54
2023-03-07T18:21:29.837Z,79.38
2023-03-07T18:23:57.140Z,79.32
2023-03-07T18:26:24.085Z,79.49
2023-03-07T18:28:53.313Z,79.48
2023-03-07T18:31:25.306Z,79.21
2023-03-07T18:33:53.241Z,79.27
2023-03-07T18:36:21.634Z,79.08
2023-03-07T18:38:48.657Z,78.97
2023-03-07T18:41:17.556Z,78.83
2023-03-07T18:43:45.043Z,78.75
2023-03-07T18:46:14.296Z,78.79
2023-03-07T18:48:41.229Z,78.64
2023-03-07T18:51:10.985Z,78.75
2023-03-07T18:53:38.476Z,78.58
2023-03-07T18:56:10.760Z,78.40
2023-03-07T18:58:37.887Z,78.48
2023-03-07T19:01:16.290Z,78.55
2023-03-07T19:03:44.213Z,78.08
2023-03-07T19:06:12.405Z,78.05
2023-03-07T19:08:39.789Z,78.14
2023-03-07T19:11:11.003Z,78.10
2023-03-07T19:13:40.628Z,78.34
2023-03-07T19:16:12.830Z,78.07
2023-03-07T19:18:40.224Z,78.19
2023-03-07T19:21:14.539Z,77.96
2023-03-07T19:23:41.524Z,77.74
2023-03-07T19:26:10.784Z,77.60
2023-03-07T19:28:37.576Z,77.88
2023-03-07T19:31:09.369Z,77.55
2023-03-07T19:33:36.887Z,77.70
2023-03-07T19:36:06.225Z,77.55
2023-03-07T19:38:36.405Z,77.50
2023-03-07T19:41:04.068Z,77.56
2023-03-07T19:43:30.889Z,77.91
2023-03-07T19:46:01.249Z,77.62
2023-03-07T19:48:28.005Z,77.59
2023-03-07T19:50:54.756Z,77.59
2023-03-07T19:53:21.564Z,77.56
2023-03-07T19:55:51.023Z,77.45
2023-03-07T19:58:17.754Z,77.70
2023-03-07T20:00:46.579Z,77.67
2023-03-07T20:03:14.658Z,77.66
2023-03-07T20:05:43.163Z,77.84
2023-03-07T20:08:10.519Z,77.84
2023-03-07T20:10:41.095Z,77.52
2023-03-07T20:13:07.989Z,77.87
2023-03-07T20:15:35.572Z,77.62
2023-03-07T20:18:06.087Z,77.85
2023-03-07T20:20:36.130Z,77.85
2023-03-07T20:23:02.869Z,78.02
2023-03-07T20:25:30.137Z,77.89
2023-03-07T20:27:57.201Z,78.15
2023-03-07T20:30:23.956Z,78.22
2023-03-07T20:32:51.095Z,78.22
2023-03-07T20:35:18.096Z,78.36
2023-03-07T20:37:44.766Z,78.44
2023-03-07T20:40:12.390Z,78.41
2023-03-07T20:42:39.074Z,78.44
2023-03-07T20:45:06.658Z,78.50
2023-03-07T20:47:36.432Z,78.47
2023-03-07T20:50:03.743Z,78.63
2023-03-07T20:52:30.613Z,78.62
2023-03-07T20:54:57.344Z,78.82
2023-03-07T20:57:24.121Z,79.01
2023-03-07T20:59:51.031Z,78.78
2023-03-07T21:02:17.692Z,79.10
2023-03-07T21:04:44.369Z,79.08
2023-03-07T21:07:11.074Z,79.40
2023-03-07T21:09:37.780Z,79.54
2023-03-07T21:12:05.553Z,79.54
2023-03-07T21:14:32.416Z,79.51
2023-03-07T21:16:59.261Z,79.77
2023-03-07T21:19:26.100Z,79.81
2023-03-07T21:21:52.762Z,79.68
2023-03-07T21:24:19.475Z,80.02
2023-03-07T21:26:47.278Z,79.99
2023-03-07T21:29:14.227Z,80.05
2023-03-07T21:31:41.255Z,80.21
2023-03-07T21:34:12.307Z,80.28
2023-03-07T21:36:39.441Z,80.38
2023-03-07T21:39:08.128Z,80.48
2023-03-07T21:41:35.022Z,80.49
2023-03-07T21:44:02.253Z,80.53
2023-03-07T21:46:29.030Z,80.88
2023-03-07T21:48:59.339Z,80.97
2023-03-07T21:51:26.391Z,80.63
2023-03-07T21:53:53.070Z,80.98
2023-03-07T21:56:20.291Z,80.91
2023-03-07T21:58:49.457Z,80.90
2023-03-07T22:01:25.924Z,80.74
2023-03-07T22:03:58.085Z,81.17
2023-03-07T22:06:27.159Z,81.09
2023-03-07T22:08:54.214Z,80.95
2023-03-07T22:11:22.503Z,81.33
2023-03-07T22:13:49.351Z,81.20
2023-03-07T22:16:18.320Z,81.50
2023-03-07T22:18:45.018Z,81.31
2023-03-07T22:21:14.384Z,81.53
2023-03-07T22:23:42.235Z,81.50
2023-03-07T22:26:10.729Z,81.29
2023-03-07T22:28:38.050Z,81.51
2023-03-07T22:31:06.865Z,81.42
2023-03-07T22:33:34.134Z,81.42
2023-03-07T22:36:03.445Z,81.38
2023-03-07T22:38:30.567Z,81.70
2023-03-07T22:41:01.974Z,81.69
2023-03-07T22:43:31.578Z,81.64
2023-03-07T22:45:58.387Z,81.49
2023-03-07T22:48:25.713Z,81.34
2023-03-07T22:50:54.508Z,81.54
2023-03-07T22:53:21.553Z,81.46
2023-03-07T22:55:48.503Z,81.22
2023-03-07T22:58:15.406Z,81.60
2023-03-07T23:00:43.982Z,81.47
2023-03-07T23:03:11.214Z,81.56
2023-03-07T23:05:38.042Z,81.33
2023-03-07T23:08:05.184Z,81.56
2023-03-07T23:10:32.470Z,81.28
2023-03-07T23:12:59.598Z,81.54
2023-03-07T23:15:26.489Z,81.51
2023-03-07T23:17:53.548Z,81.72
2023-03-07T23:20:20.373Z,81.44
2023-03-07T23:22:49.874Z,81.62
2023-03-07T23:25:16.555Z,81.63
2023-03-07T23:27:43.274Z,81.75
2023-03-07T23:30:10.673Z,81.62
2023-03-07T23:32:37.505Z,81.69
2023-03-07T23:35:04.573Z,81.91
2023-03-07T23:37:32.065Z,81.92
2023-03-07T23:40:00.896Z,81.85
2023-03-07T23:42:27.724Z,81.79
2023-03-07T23:44:55.267Z,81.68
2023-03-07T23:47:22.239Z,81.85
2023-03-07T23:49:49.125Z,81.62
2023-03-07T23:52:15.947Z,81.61
2023-03-07T23:54:45.341Z,81.67
2023-03-07T23:57:12.536Z,81.83
2023-03-07T23:59:39.369Z,81.47
